sensor_id;sensor_type;location;lat;lon;timestamp;temperature;humidity
13850;DHT22;6995;52.618;13.488;2022-08-02T06:34:11;21.00;23.00
13850;DHT22;6995;52.618;13.488;2022-08-02T06:39:47;21.30;24.50
13850;DHT22;6995;52.618;13.488;2022-08-02T06:42:19;21.40;21.50
13850;DHT22;6995;52.618;13.488;2022-08-02T06:44:46;21.30;18.60
13850;DHT22;6995;52.618;13.488;2022-08-02T06:47:11;21.40;19.00
13850;DHT22;6995;52.618;13.488;2022-08-02T06:49:37;21.60;17.80
13850;DHT22;6995;52.618;13.488;2022-08-02T06:52:03;21.70;17.60
13850;DHT22;6995;52.618;13.488;2022-08-02T06:54:29;21.90;14.90
13850;DHT22;6995;52.618;13.488;2022-08-02T06:56:55;22.00;12.60
13850;DHT22;6995;52.618;13.488;2022-08-02T06:59:20;21.80;11.00
13850;DHT22;6995;52.618;13.488;2022-08-02T07:01:46;21.90;12.70
13850;DHT22;6995;52.618;13.488;2022-08-02T07:04:12;22.20;11.60
13850;DHT22;6995;52.618;13.488;2022-08-02T07:06:37;22.20;8.40
13850;DHT22;6995;52.618;13.488;2022-08-02T07:09:03;22.50;8.30
13850;DHT22;6995;52.618;13.488;2022-08-02T07:11:29;22.60;5.70
13850;DHT22;6995;52.618;13.488;2022-08-02T07:13:55;22.50;3.90
13850;DHT22;6995;52.618;13.488;2022-08-02T07:16:20;22.60;24.50
13850;DHT22;6995;52.618;13.488;2022-08-02T07:18:46;22.70;3.90
13850;DHT22;6995;52.618;13.488;2022-08-02T07:21:12;22.70;1.90
13850;DHT22;6995;52.618;13.488;2022-08-02T07:23:37;22.70;1.80
13850;DHT22;6995;52.618;13.488;2022-08-02T07:26:03;22.50;1.00
13850;DHT22;6995;52.618;13.488;2022-08-02T07:28:29;22.50;1.20
13850;DHT22;6995;52.618;13.488;2022-08-02T07:30:55;22.40;1.00
13850;DHT22;6995;52.618;13.488;2022-08-02T07:33:21;22.30;1.30
13850;DHT22;6995;52.618;13.488;2022-08-02T07:35:47;22.30;1.00
13850;DHT22;6995;52.618;13.488;2022-08-02T07:38:12;22.20;3.00
13850;DHT22;6995;52.618;13.488;2022-08-02T07:40:38;22.40;18.90
13850;DHT22;6995;52.618;13.488;2022-08-02T07:43:04;22.20;1.00
13850;DHT22;6995;52.618;13.488;2022-08-02T07:45:30;22.40;1.00
13850;DHT22;6995;52.618;13.488;2022-08-02T07:47:56;22.40;1.00
13850;DHT22;6995;52.618;13.488;2022-08-02T07:50:35;22.40;1.00
13850;DHT22;6995;52.618;13.488;2022-08-02T07:53:01;22.50;1.00
13850;DHT22;6995;52.618;13.488;2022-08-02T07:55:33;22.70;1.00
13850;DHT22;6995;52.618;13.488;2022-08-02T07:57:58;22.70;1.00
13850;DHT22;6995;52.618;13.488;2022-08-02T08:00:24;22.60;1.00
13850;DHT22;6995;52.618;13.488;2022-08-02T08:02:50;22.60;1.00
13850;DHT22;6995;52.618;13.488;2022-08-02T08:05:15;22.50;1.00
13850;DHT22;6995;52.618;13.488;2022-08-02T08:07:41;22.90;1.00
13850;DHT22;6995;52.618;13.488;2022-08-02T08:10:07;23.00;1.00
13850;DHT22;6995;52.618;13.488;2022-08-02T08:12:33;22.90;1.00
13850;DHT22;6995;52.618;13.488;2022-08-02T08:14:59;23.10;11.50
13850;DHT22;6995;52.618;13.488;2022-08-02T08:17:24;22.90;1.00
13850;DHT22;6995;52.618;13.488;2022-08-02T08:19:50;22.80;1.00
13850;DHT22;6995;52.618;13.488;2022-08-02T08:22:16;22.90;1.00
13850;DHT22;6995;52.618;13.488;2022-08-02T08:24:42;23.00;1.00
13850;DHT22;6995;52.618;13.488;2022-08-02T08:27:08;23.00;1.00
13850;DHT22;6995;52.618;13.488;2022-08-02T08:29:39;22.70;11.20
13850;DHT22;6995;52.618;13.488;2022-08-02T08:32:05;22.50;1.00
13850;DHT22;6995;52.618;13.488;2022-08-02T08:34:31;22.60;1.00
13850;DHT22;6995;52.618;13.488;2022-08-02T08:36:56;22.50;1.00
13850;DHT22;6995;52.618;13.488;2022-08-02T08:39:22;22.60;1.00
13850;DHT22;6995;52.618;13.488;2022-08-02T08:41:48;22.50;1.00
13850;DHT22;6995;52.618;13.488;2022-08-02T08:44:14;22.50;1.00
13850;DHT22;6995;52.618;13.488;2022-08-02T08:46:41;22.60;1.00
13850;DHT22;6995;52.618;13.488;2022-08-02T08:49:14;22.70;1.00
13850;DHT22;6995;52.618;13.488;2022-08-02T08:51:43;22.90;1.00
13850;DHT22;6995;52.618;13.488;2022-08-02T08:54:13;22.60;1.00
13850;DHT22;6995;52.618;13.488;2022-08-02T08:56:41;22.40;1.00
13850;DHT22;6995;52.618;13.488;2022-08-02T08:59:07;22.50;1.00
13850;DHT22;6995;52.618;13.488;2022-08-02T09:01:33;22.50;1.00
13850;DHT22;6995;52.618;13.488;2022-08-02T09:03:59;22.60;1.00
13850;DHT22;6995;52.618;13.488;2022-08-02T09:06:25;22.60;1.00
13850;DHT22;6995;52.618;13.488;2022-08-02T09:08:54;22.70;1.00
13850;DHT22;6995;52.618;13.488;2022-08-02T09:11:24;23.00;1.00
13850;DHT22;6995;52.618;13.488;2022-08-02T09:13:55;23.10;1.00
13850;DHT22;6995;52.618;13.488;2022-08-02T09:16:42;23.00;1.00
13850;DHT22;6995;52.618;13.488;2022-08-02T09:19:17;23.00;1.00
13850;DHT22;6995;52.618;13.488;2022-08-02T09:21:43;23.10;1.00
13850;DHT22;6995;52.618;13.488;2022-08-02T09:24:22;23.30;1.00
13850;DHT22;6995;52.618;13.488;2022-08-02T09:26:49;23.40;1.00
13850;DHT22;6995;52.618;13.488;2022-08-02T09:29:16;23.50;1.00
13850;DHT22;6995;52.618;13.488;2022-08-02T09:31:43;23.40;1.00
13850;DHT22;6995;52.618;13.488;2022-08-02T09:34:10;23.40;1.00
13850;DHT22;6995;52.618;13.488;2022-08-02T09:36:38;23.50;1.00
13850;DHT22;6995;52.618;13.488;2022-08-02T09:39:06;23.70;1.00
13850;DHT22;6995;52.618;13.488;2022-08-02T09:41:34;23.70;1.00
13850;DHT22;6995;52.618;13.488;2022-08-02T09:44:03;23.60;1.00
13850;DHT22;6995;52.618;13.488;2022-08-02T09:46:30;23.60;1.00
13850;DHT22;6995;52.618;13.488;2022-08-02T09:49:00;23.60;1.00
13850;DHT22;6995;52.618;13.488;2022-08-02T09:51:27;23.60;1.00
13850;DHT22;6995;52.618;13.488;2022-08-02T09:53:58;23.50;1.00
13850;DHT22;6995;52.618;13.488;2022-08-02T09:56:26;23.60;1.00
13850;DHT22;6995;52.618;13.488;2022-08-02T09:58:53;23.60;1.00
13850;DHT22;6995;52.618;13.488;2022-08-02T10:01:30;23.70;1.00
13850;DHT22;6995;52.618;13.488;2022-08-02T10:04:02;23.90;1.00
13850;DHT22;6995;52.618;13.488;2022-08-02T10:06:29;24.00;1.00
13850;DHT22;6995;52.618;13.488;2022-08-02T10:08:55;24.00;1.00
13850;DHT22;6995;52.618;13.488;2022-08-02T10:11:23;24.20;1.00
13850;DHT22;6995;52.618;13.488;2022-08-02T10:13:50;24.00;1.00
13850;DHT22;6995;52.618;13.488;2022-08-02T10:16:18;24.10;1.00
13850;DHT22;6995;52.618;13.488;2022-08-02T10:18:55;24.30;1.00
13850;DHT22;6995;52.618;13.488;2022-08-02T10:24:36;24.50;1.00
13850;DHT22;6995;52.618;13.488;2022-08-02T10:27:02;24.50;1.00
13850;DHT22;6995;52.618;13.488;2022-08-02T10:29:42;24.80;1.00
13850;DHT22;6995;52.618;13.488;2022-08-02T10:32:26;25.10;1.00
13850;DHT22;6995;52.618;13.488;2022-08-02T10:35:05;25.10;1.00
13850;DHT22;6995;52.618;13.488;2022-08-02T10:37:40;25.10;1.00
13850;DHT22;6995;52.618;13.488;2022-08-02T10:40:15;24.90;1.00
13850;DHT22;6995;52.618;13.488;2022-08-02T10:42:56;25.00;1.00
13850;DHT22;6995;52.618;13.488;2022-08-02T10:45:25;24.90;1.00
13850;DHT22;6995;52.618;13.488;2022-08-02T10:48:22;24.80;1.00
13850;DHT22;6995;52.618;13.488;2022-08-02T10:51:02;24.70;1.00
13850;DHT22;6995;52.618;13.488;2022-08-02T10:53:33;24.80;1.00
13850;DHT22;6995;52.618;13.488;2022-08-02T10:56:06;24.90;1.00
13850;DHT22;6995;52.618;13.488;2022-08-02T11:02:10;24.80;1.00
13850;DHT22;6995;52.618;13.488;2022-08-02T11:09:45;25.90;1.00
13850;DHT22;6995;52.618;13.488;2022-08-02T11:12:18;26.10;1.00
13850;DHT22;6995;52.618;13.488;2022-08-02T11:14:56;26.00;1.00
13850;DHT22;6995;52.618;13.488;2022-08-02T11:17:23;25.60;1.00
13850;DHT22;6995;52.618;13.488;2022-08-02T11:22:41;25.70;1.00
13850;DHT22;6995;52.618;13.488;2022-08-02T11:27:56;26.00;1.00
13850;DHT22;6995;52.618;13.488;2022-08-02T11:30:23;25.80;1.00
13850;DHT22;6995;52.618;13.488;2022-08-02T11:33:03;25.90;1.00
13850;DHT22;6995;52.618;13.488;2022-08-02T11:35:46;26.00;1.00
13850;DHT22;6995;52.618;13.488;2022-08-02T11:38:19;26.20;1.00
13850;DHT22;6995;52.618;13.488;2022-08-02T11:40:58;26.40;1.00
13850;DHT22;6995;52.618;13.488;2022-08-02T11:43:33;26.20;1.00
13850;DHT22;6995;52.618;13.488;2022-08-02T11:46:03;26.20;1.00
13850;DHT22;6995;52.618;13.488;2022-08-02T11:48:38;26.50;1.00
13850;DHT22;6995;52.618;13.488;2022-08-02T11:51:15;26.70;1.00
13850;DHT22;6995;52.618;13.488;2022-08-02T11:53:54;27.00;1.00
13850;DHT22;6995;52.618;13.488;2022-08-02T11:56:30;27.20;1.00
13850;DHT22;6995;52.618;13.488;2022-08-02T12:01:34;27.20;1.00
13850;DHT22;6995;52.618;13.488;2022-08-02T12:04:01;27.00;1.00
13850;DHT22;6995;52.618;13.488;2022-08-02T12:06:37;27.30;1.00
13850;DHT22;6995;52.618;13.488;2022-08-02T12:09:11;27.30;1.00
13850;DHT22;6995;52.618;13.488;2022-08-02T12:11:49;27.50;1.00
13850;DHT22;6995;52.618;13.488;2022-08-02T12:14:17;27.80;1.00
13850;DHT22;6995;52.618;13.488;2022-08-02T12:16:46;27.80;1.00
13850;DHT22;6995;52.618;13.488;2022-08-02T12:19:31;28.20;1.00
13850;DHT22;6995;52.618;13.488;2022-08-02T12:22:12;28.50;1.00
13850;DHT22;6995;52.618;13.488;2022-08-02T12:24:40;28.90;1.00
13850;DHT22;6995;52.618;13.488;2022-08-02T12:27:07;28.80;1.00
13850;DHT22;6995;52.618;13.488;2022-08-02T12:29:38;28.40;1.00
13850;DHT22;6995;52.618;13.488;2022-08-02T12:32:06;28.50;1.00
13850;DHT22;6995;52.618;13.488;2022-08-02T12:34:33;28.60;1.00
13850;DHT22;6995;52.618;13.488;2022-08-02T12:37:05;29.30;1.00
13850;DHT22;6995;52.618;13.488;2022-08-02T12:39:44;30.00;1.00
13850;DHT22;6995;52.618;13.488;2022-08-02T12:42:13;30.90;1.00
13850;DHT22;6995;52.618;13.488;2022-08-02T12:44:57;31.00;1.00
13850;DHT22;6995;52.618;13.488;2022-08-02T12:47:25;30.90;1.00
13850;DHT22;6995;52.618;13.488;2022-08-02T12:50:14;31.50;1.00
13850;DHT22;6995;52.618;13.488;2022-08-02T12:52:40;31.50;1.00
13850;DHT22;6995;52.618;13.488;2022-08-02T12:55:21;32.00;1.00
13850;DHT22;6995;52.618;13.488;2022-08-02T12:58:05;32.60;1.00
13850;DHT22;6995;52.618;13.488;2022-08-02T13:00:34;32.40;1.00
13850;DHT22;6995;52.618;13.488;2022-08-02T13:03:00;32.30;1.00
13850;DHT22;6995;52.618;13.488;2022-08-02T13:05:26;32.30;1.00
13850;DHT22;6995;52.618;13.488;2022-08-02T13:07:56;32.40;1.00
13850;DHT22;6995;52.618;13.488;2022-08-02T13:10:23;33.50;1.00
13850;DHT22;6995;52.618;13.488;2022-08-02T13:12:50;34.30;1.00
13850;DHT22;6995;52.618;13.488;2022-08-02T13:15:17;34.00;1.00
13850;DHT22;6995;52.618;13.488;2022-08-02T13:17:43;33.40;1.00
13850;DHT22;6995;52.618;13.488;2022-08-02T13:20:09;33.40;1.00
13850;DHT22;6995;52.618;13.488;2022-08-02T13:22:36;33.30;1.00
13850;DHT22;6995;52.618;13.488;2022-08-02T13:25:02;33.20;1.00
13850;DHT22;6995;52.618;13.488;2022-08-02T13:27:33;32.80;1.00
13850;DHT22;6995;52.618;13.488;2022-08-02T13:30:00;32.70;1.00
13850;DHT22;6995;52.618;13.488;2022-08-02T13:32:26;32.70;1.00
13850;DHT22;6995;52.618;13.488;2022-08-02T13:34:54;32.30;1.00
13850;DHT22;6995;52.618;13.488;2022-08-02T13:37:20;33.30;1.00
13850;DHT22;6995;52.618;13.488;2022-08-02T13:39:47;33.20;1.00
13850;DHT22;6995;52.618;13.488;2022-08-02T13:42:12;33.60;1.00
13850;DHT22;6995;52.618;13.488;2022-08-02T13:44:38;32.10;1.00
13850;DHT22;6995;52.618;13.488;2022-08-02T13:47:04;32.60;1.00
13850;DHT22;6995;52.618;13.488;2022-08-02T13:49:29;33.30;1.00
13850;DHT22;6995;52.618;13.488;2022-08-02T13:51:55;32.70;1.00
13850;DHT22;6995;52.618;13.488;2022-08-02T13:54:21;33.00;1.00
13850;DHT22;6995;52.618;13.488;2022-08-02T13:56:46;33.20;1.00
13850;DHT22;6995;52.618;13.488;2022-08-02T13:59:12;33.60;1.00
13850;DHT22;6995;52.618;13.488;2022-08-02T14:01:38;34.70;1.00
13850;DHT22;6995;52.618;13.488;2022-08-02T14:04:06;34.60;1.00
13850;DHT22;6995;52.618;13.488;2022-08-02T14:06:32;33.60;1.00
13850;DHT22;6995;52.618;13.488;2022-08-02T14:08:58;33.30;1.00
13850;DHT22;6995;52.618;13.488;2022-08-02T14:11:26;33.70;1.00
13850;DHT22;6995;52.618;13.488;2022-08-02T14:13:51;33.00;1.00
13850;DHT22;6995;52.618;13.488;2022-08-02T14:16:17;33.40;1.00
13850;DHT22;6995;52.618;13.488;2022-08-02T14:18:43;34.20;1.00
13850;DHT22;6995;52.618;13.488;2022-08-02T14:21:08;34.80;1.00
13850;DHT22;6995;52.618;13.488;2022-08-02T14:23:34;33.50;1.00
13850;DHT22;6995;52.618;13.488;2022-08-02T14:26:00;33.90;1.00
13850;DHT22;6995;52.618;13.488;2022-08-02T14:28:26;34.70;1.00
13850;DHT22;6995;52.618;13.488;2022-08-02T14:30:51;33.80;1.00
13850;DHT22;6995;52.618;13.488;2022-08-02T14:33:20;33.90;1.00
13850;DHT22;6995;52.618;13.488;2022-08-02T14:35:49;34.50;1.00
13850;DHT22;6995;52.618;13.488;2022-08-02T14:38:14;34.60;1.00
13850;DHT22;6995;52.618;13.488;2022-08-02T14:40:44;34.70;1.00
13850;DHT22;6995;52.618;13.488;2022-08-02T14:43:13;34.50;1.00
13850;DHT22;6995;52.618;13.488;2022-08-02T14:45:57;34.80;1.00
13850;DHT22;6995;52.618;13.488;2022-08-02T14:48:23;34.80;1.00
13850;DHT22;6995;52.618;13.488;2022-08-02T14:50:48;34.30;1.00
13850;DHT22;6995;52.618;13.488;2022-08-02T14:53:14;34.20;1.00
13850;DHT22;6995;52.618;13.488;2022-08-02T14:55:41;34.10;1.00
13850;DHT22;6995;52.618;13.488;2022-08-02T14:58:12;33.80;1.00
13850;DHT22;6995;52.618;13.488;2022-08-02T15:00:43;34.50;1.00
13850;DHT22;6995;52.618;13.488;2022-08-02T15:03:10;35.10;1.00
13850;DHT22;6995;52.618;13.488;2022-08-02T15:05:37;35.30;1.00
13850;DHT22;6995;52.618;13.488;2022-08-02T15:08:06;34.50;1.00
13850;DHT22;6995;52.618;13.488;2022-08-02T15:10:31;34.50;1.00
13850;DHT22;6995;52.618;13.488;2022-08-02T15:12:57;34.10;1.00
13850;DHT22;6995;52.618;13.488;2022-08-02T15:15:23;34.20;1.00
13850;DHT22;6995;52.618;13.488;2022-08-02T15:17:50;34.20;1.00
13850;DHT22;6995;52.618;13.488;2022-08-02T15:20:16;33.80;1.00
13850;DHT22;6995;52.618;13.488;2022-08-02T15:22:42;33.30;1.00
13850;DHT22;6995;52.618;13.488;2022-08-02T15:25:07;32.80;1.00
13850;DHT22;6995;52.618;13.488;2022-08-02T15:27:33;32.60;1.00
13850;DHT22;6995;52.618;13.488;2022-08-02T15:29:59;32.40;1.00
13850;DHT22;6995;52.618;13.488;2022-08-02T15:32:25;32.10;1.00
13850;DHT22;6995;52.618;13.488;2022-08-02T15:34:51;31.80;1.00
13850;DHT22;6995;52.618;13.488;2022-08-02T15:37:16;31.60;1.00
13850;DHT22;6995;52.618;13.488;2022-08-02T15:39:42;31.00;1.00
13850;DHT22;6995;52.618;13.488;2022-08-02T15:42:08;31.10;1.00
13850;DHT22;6995;52.618;13.488;2022-08-02T15:44:34;31.10;1.00
13850;DHT22;6995;52.618;13.488;2022-08-02T15:46:59;31.10;1.00
13850;DHT22;6995;52.618;13.488;2022-08-02T15:49:25;30.90;1.00
13850;DHT22;6995;52.618;13.488;2022-08-02T15:51:52;30.80;1.00
13850;DHT22;6995;52.618;13.488;2022-08-02T15:54:17;30.70;1.00
13850;DHT22;6995;52.618;13.488;2022-08-02T15:56:43;30.20;1.00
13850;DHT22;6995;52.618;13.488;2022-08-02T15:59:09;30.30;1.00
13850;DHT22;6995;52.618;13.488;2022-08-02T16:01:35;30.20;1.00
13850;DHT22;6995;52.618;13.488;2022-08-02T16:04:00;30.20;1.00
13850;DHT22;6995;52.618;13.488;2022-08-02T16:06:26;30.30;1.00
13850;DHT22;6995;52.618;13.488;2022-08-02T16:08:52;30.20;1.00
13850;DHT22;6995;52.618;13.488;2022-08-02T16:11:20;30.10;1.00
13850;DHT22;6995;52.618;13.488;2022-08-02T16:13:46;30.20;1.00
13850;DHT22;6995;52.618;13.488;2022-08-02T16:16:15;30.00;1.00
13850;DHT22;6995;52.618;13.488;2022-08-02T16:18:41;29.70;1.00
13850;DHT22;6995;52.618;13.488;2022-08-02T16:21:06;29.60;1.00
13850;DHT22;6995;52.618;13.488;2022-08-02T16:23:32;29.50;1.00
13850;DHT22;6995;52.618;13.488;2022-08-02T16:25:58;29.50;1.00
13850;DHT22;6995;52.618;13.488;2022-08-02T16:28:25;29.60;1.00
13850;DHT22;6995;52.618;13.488;2022-08-02T16:30:50;29.70;1.00
13850;DHT22;6995;52.618;13.488;2022-08-02T16:33:16;29.70;1.00
13850;DHT22;6995;52.618;13.488;2022-08-02T16:35:44;29.50;1.00
13850;DHT22;6995;52.618;13.488;2022-08-02T16:38:10;29.50;1.00
13850;DHT22;6995;52.618;13.488;2022-08-02T16:40:42;29.60;1.00
13850;DHT22;6995;52.618;13.488;2022-08-02T16:43:10;30.00;1.00
13850;DHT22;6995;52.618;13.488;2022-08-02T16:45:36;30.80;1.00
13850;DHT22;6995;52.618;13.488;2022-08-02T16:48:02;31.60;1.00
13850;DHT22;6995;52.618;13.488;2022-08-02T16:50:32;31.80;1.00
13850;DHT22;6995;52.618;13.488;2022-08-02T16:52:58;31.80;1.00
13850;DHT22;6995;52.618;13.488;2022-08-02T16:55:24;31.50;1.00
13850;DHT22;6995;52.618;13.488;2022-08-02T16:57:49;31.20;1.00
13850;DHT22;6995;52.618;13.488;2022-08-02T17:00:15;30.80;1.00
13850;DHT22;6995;52.618;13.488;2022-08-02T17:02:41;30.80;1.00
13850;DHT22;6995;52.618;13.488;2022-08-02T17:05:08;30.70;1.00
13850;DHT22;6995;52.618;13.488;2022-08-02T17:07:34;30.40;1.00
13850;DHT22;6995;52.618;13.488;2022-08-02T17:13:11;30.00;1.00
13850;DHT22;6995;52.618;13.488;2022-08-02T17:15:43;29.60;1.00
13850;DHT22;6995;52.618;13.488;2022-08-02T17:39:43;27.90;1.00
13850;DHT22;6995;52.618;13.488;2022-08-02T17:43:16;27.80;1.00
13850;DHT22;6995;52.618;13.488;2022-08-02T17:49:54;27.70;1.00
